DAOO/ORN METAR and TAF weather

Enter ICAO airport designator
Station Type Date Time Source
DAOO METAR 2022/01/26 13:30 UTC NOAA

DAOO 261330Z 14005KT 9999 FEW020 SCT100 18/04 Q1025


Station Type Date Time Source
DAOO Decoded METAR 2022/01/26 13:30 UTC NOAA

Oran / Es Senia, Algeria (DAOO) 35-38N 000-36W 90M
Jan 26, 2022 - 08:30 AM EST / 2022.01.26 1330 UTC
Wind: from the SE (140 degrees) at 6 MPH (5 KT):0
Visibility: greater than 7 mile(s):0
Sky conditions: partly cloudy
Temperature: 64 F (18 C)
Dew Point: 39 F (4 C)
Relative Humidity: 39%
Pressure (altimeter): 30.27 in. Hg (1025 hPa)
ob: DAOO 261330Z 14005KT 9999 FEW020 SCT100 18/04 Q1025
cycle: 13

Station Type Date Time Source
DAOO TAF 2022/01/26 12:31 UTC NOAA

TAF DAOO 261100Z 2612/2712 12012KT 9999 FEW020 SCT100 PROB40
TEMPO 2620/2703 09015G30KT 8000 RA FEW026TCU

Example: see airport list